Time;durP1;ratioP1;P1;durP2;ratioP2;P2;SDS_P1;SDS_P2;PMS_P1;PMS_P2;Temp;Humidity;BMP_temperature;BMP_pressure;BME280_temperature;BME280_humidity;BME280_pressure;Samples;Min_cycle;Max_cycle;Signal;HPM_P1;HPM_P2
2023/09/10 00:01:56;;;;;;;25.05;11.68;;;563.20;2432.00;;;;;;4941333;29;20042;-78
2023/09/10 00:04:21;;;;;;;19.67;11.18;;;538.50;2406.40;;;;;;4946430;29;20019;-74
2023/09/10 00:06:47;;;;;;;18.70;10.70;;;538.50;2406.40;;;;;;4945596;29;20020;-75
2023/09/10 00:09:13;;;;;;;23.73;10.95;;;538.50;2406.40;;;;;;4950949;29;20023;-75
2023/09/10 00:11:38;;;;;;;29.73;10.52;;;538.40;2406.40;;;;;;4948898;29;20082;-74
2023/09/10 00:14:04;;;;;;;21.13;11.02;;;538.50;2406.40;;;;;;4945204;29;20055;-76
2023/09/10 00:16:30;;;;;;;24.17;11.48;;;538.40;2406.40;;;;;;4950996;29;20031;-75
2023/09/10 00:18:56;;;;;;;18.40;11.30;;;538.30;2406.40;;;;;;4948569;29;20030;-75
2023/09/10 00:21:21;;;;;;;21.45;11.30;;;538.10;2406.40;;;;;;4944202;29;20032;-76
2023/09/10 00:23:47;;;;;;;15.73;9.88;;;538.10;2406.40;;;;;;4951999;29;20495;-74
2023/09/10 00:26:13;;;;;;;20.95;10.43;;;538.20;2406.40;;;;;;4954148;29;20063;-74
2023/09/10 00:28:38;;;;;;;18.80;9.75;;;538.30;2406.40;;;;;;4950584;29;20467;-75
2023/09/10 00:31:04;;;;;;;21.23;9.38;;;538.30;2406.40;;;;;;4947040;29;20027;-75
2023/09/10 00:33:30;;;;;;;20.35;10.10;;;538.20;2406.40;;;;;;4945545;29;20042;-74
2023/09/10 00:35:56;;;;;;;20.33;9.90;;;538.40;2406.40;;;;;;4950214;29;20024;-75
2023/09/10 00:38:22;;;;;;;17.38;9.70;;;538.50;2406.40;;;;;;4948033;29;20103;-75
2023/09/10 00:40:48;;;;;;;15.32;9.52;;;563.20;2432.00;;;;;;4943790;29;20442;-75
2023/09/10 00:43:13;;;;;;;18.20;9.90;;;563.30;2432.00;;;;;;4948979;29;20026;-76
2023/09/10 00:45:39;;;;;;;17.05;9.00;;;563.20;2432.00;;;;;;4944508;29;20484;-75
2023/09/10 00:48:05;;;;;;;14.70;9.95;;;563.40;2432.00;;;;;;4944893;29;20096;-74
2023/09/10 00:50:31;;;;;;;14.18;9.95;;;563.50;2432.00;;;;;;4943349;29;20028;-75
2023/09/10 00:53:00;;;;;;;17.67;9.77;;;563.60;2432.00;;;;;;4950469;29;20087;-74
2023/09/10 00:55:29;;;;;;;20.40;10.02;;;563.60;2432.00;;;;;;4953922;29;20107;-73
2023/09/10 00:57:55;;;;;;;19.10;9.60;;;563.60;2432.00;;;;;;4954290;29;20019;-75
2023/09/10 01:00:22;;;;;;;19.13;9.90;;;563.60;2432.00;;;;;;4944443;29;20091;-73
2023/09/10 01:02:49;;;;;;;15.32;10.50;;;563.60;2432.00;;;;;;4950771;29;20042;-74
2023/09/10 01:05:17;;;;;;;15.30;9.43;;;563.50;2432.00;;;;;;4952341;29;20039;-75
2023/09/10 01:07:44;;;;;;;16.40;9.82;;;563.30;2432.00;;;;;;4949986;29;20119;-73
2023/09/10 01:10:10;;;;;;;17.50;9.13;;;563.30;2432.00;;;;;;4945651;29;20019;-75
2023/09/10 01:12:50;;;;;;;14.82;9.13;;;563.30;2432.00;;;;;;4951232;29;20023;-74
2023/09/10 01:15:32;;;;;;;16.92;10.35;;;563.20;2432.00;;;;;;4947703;29;20059;-74
2023/09/10 01:18:05;;;;;;;16.92;10.35;;;538.50;2406.40;;;;;;4944308;29;20111;-73
2023/09/10 01:21:03;;;;;;;15.10;9.57;;;538.40;2406.40;;;;;;4949336;29;20024;-79
2023/09/10 01:23:42;;;;;;;15.25;9.30;;;538.20;2406.40;;;;;;4894797;29;20502;-76
2023/09/10 01:26:08;;;;;;;17.13;9.65;;;537.90;2406.40;;;;;;4894613;29;20057;-74
2023/09/10 01:28:33;;;;;;;16.67;9.30;;;537.70;2406.40;;;;;;4888976;29;20396;-78
2023/09/10 01:30:59;;;;;;;16.80;9.32;;;512.90;2380.80;;;;;;4888483;29;20109;-74
2023/09/10 01:33:34;;;;;;;15.77;9.35;;;537.70;2406.40;;;;;;4886171;29;20569;-73
2023/09/10 01:36:14;;;;;;;15.63;9.98;;;537.70;2406.40;;;;;;4891358;29;20036;-74
2023/09/10 01:38:49;;;;;;;21.23;10.43;;;537.80;2406.40;;;;;;4887997;29;20021;-73
2023/09/10 01:41:17;;;;;;;16.77;10.00;;;537.70;2406.40;;;;;;4885311;29;20041;-74
2023/09/10 01:43:44;;;;;;;16.10;9.45;;;537.70;2406.40;;;;;;4892342;29;20060;-74
2023/09/10 01:46:12;;;;;;;16.70;9.57;;;537.70;2406.40;;;;;;4890502;29;20052;-76
2023/09/10 01:48:37;;;;;;;14.52;9.23;;;537.70;2406.40;;;;;;4891632;29;20021;-74
2023/09/10 01:51:03;;;;;;;18.90;9.95;;;537.80;2406.40;;;;;;4887372;29;20033;-73
2023/09/10 01:53:29;;;;;;;18.65;10.48;;;537.80;2406.40;;;;;;4889914;29;20103;-74
2023/09/10 01:55:55;;;;;;;18.95;10.30;;;537.80;2406.40;;;;;;4892309;29;20037;-74
2023/09/10 01:58:22;;;;;;;16.42;9.43;;;538.00;2406.40;;;;;;4896241;29;20049;-73
2023/09/10 02:00:47;;;;;;;17.20;9.70;;;537.80;2406.40;;;;;;4933068;29;20032;-74
2023/09/10 02:03:13;;;;;;;17.65;9.98;;;537.80;2406.40;;;;;;4932091;29;20024;-74
2023/09/10 02:05:41;;;;;;;18.48;9.70;;;537.80;2406.40;;;;;;4929007;29;20346;-74
2023/09/10 02:08:07;;;;;;;14.77;9.75;;;537.90;2406.40;;;;;;4932624;29;20024;-75
2023/09/10 02:10:33;;;;;;;18.00;9.90;;;538.00;2406.40;;;;;;4927954;29;20473;-77
2023/09/10 02:12:59;;;;;;;16.52;10.10;;;538.00;2406.40;;;;;;4928071;29;20028;-73
2023/09/10 02:15:26;;;;;;;15.95;10.23;;;537.90;2406.40;;;;;;4927052;29;20024;-74
2023/09/10 02:17:53;;;;;;;17.70;10.20;;;538.00;2406.40;;;;;;4932247;29;20114;-74
2023/09/10 02:20:19;;;;;;;14.98;9.55;;;537.80;2406.40;;;;;;4923731;29;20024;-73
2023/09/10 02:22:45;;;;;;;20.27;10.98;;;537.70;2406.40;;;;;;4930929;29;20062;-75
2023/09/10 02:25:10;;;;;;;25.23;11.00;;;512.90;2380.80;;;;;;4947670;29;20075;-73
2023/09/10 02:27:36;;;;;;;13.52;10.27;;;512.70;2380.80;;;;;;4950051;29;20106;-75
2023/09/10 02:30:03;;;;;;;19.13;10.40;;;512.30;2380.80;;;;;;4948123;29;20030;-76
2023/09/10 02:32:31;;;;;;;15.95;10.50;;;512.60;2380.80;;;;;;4951465;28;20058;-74
2023/09/10 02:34:56;;;;;;;20.33;10.15;;;512.70;2380.80;;;;;;4956413;29;20074;-74
2023/09/10 02:37:22;;;;;;;22.35;11.40;;;512.80;2380.80;;;;;;4949997;29;20480;-73
2023/09/10 02:39:48;;;;;;;19.92;9.95;;;512.80;2380.80;;;;;;4937223;29;20024;-74
2023/09/10 02:42:13;;;;;;;15.20;10.27;;;512.90;2380.80;;;;;;4937241;29;20031;-77
2023/09/10 02:44:39;;;;;;;16.02;10.43;;;512.90;2380.80;;;;;;4936942;29;20062;-73
2023/09/10 02:47:05;;;;;;;12.38;10.05;;;512.80;2380.80;;;;;;4937178;29;20083;-75
2023/09/10 02:49:32;;;;;;;21.45;10.38;;;512.80;2380.80;;;;;;4937160;29;20527;-74
2023/09/10 02:51:57;;;;;;;15.43;9.93;;;512.80;2380.80;;;;;;4937084;29;20023;-74
2023/09/10 02:54:23;;;;;;;15.88;10.60;;;512.90;2380.80;;;;;;4937190;29;20345;-76
2023/09/10 02:56:50;;;;;;;19.13;11.93;;;512.90;2380.80;;;;;;4937056;29;20039;-74
2023/09/10 02:59:26;;;;;;;20.45;11.25;;;512.90;2380.80;;;;;;4936820;29;20067;-78
2023/09/10 03:01:53;;;;;;;16.73;9.95;;;512.90;2380.80;;;;;;4949394;29;20491;-75
2023/09/10 03:04:19;;;;;;;16.30;11.40;;;512.90;2380.80;;;;;;4956019;29;20150;-73
2023/09/10 03:06:49;;;;;;;19.73;10.82;;;512.90;2380.80;;;;;;4955908;29;20118;-74
2023/09/10 03:09:15;;;;;;;23.05;11.82;;;512.90;2380.80;;;;;;4955873;29;20542;-75
2023/09/10 03:11:42;;;;;;;17.35;11.23;;;512.90;2380.80;;;;;;4956045;29;20159;-74
2023/09/10 03:14:09;;;;;;;17.55;11.57;;;512.90;2380.80;;;;;;4955688;29;20467;-73
2023/09/10 03:16:38;;;;;;;20.42;11.40;;;512.90;2380.80;;;;;;4955772;28;20055;-74
2023/09/10 03:19:04;;;;;;;18.00;11.30;;;512.60;2380.80;;;;;;4955825;29;20030;-74
2023/09/10 03:21:30;;;;;;;18.58;10.18;;;512.30;2380.80;;;;;;4955401;29;20061;-75
2023/09/10 03:23:57;;;;;;;16.25;10.63;;;512.10;2380.80;;;;;;4955649;29;20491;-75
2023/09/10 03:26:23;;;;;;;20.55;12.05;;;487.30;2380.80;;;;;;4955719;29;20035;-74
2023/09/10 03:28:48;;;;;;;19.67;11.00;;;487.30;2380.80;;;;;;4955505;29;20468;-74
2023/09/10 03:31:14;;;;;;;24.40;12.02;;;512.00;2380.80;;;;;;4955593;29;20078;-74
2023/09/10 03:33:41;;;;;;;23.80;11.80;;;487.30;2380.80;;;;;;4955610;29;20054;-74
2023/09/10 03:36:09;;;;;;;22.33;11.50;;;512.10;2380.80;;;;;;4955462;29;20058;-74
2023/09/10 03:38:35;;;;;;;16.98;10.02;;;487.30;2380.80;;;;;;4955542;29;20023;-74
2023/09/10 03:41:00;;;;;;;16.70;11.23;;;487.10;2380.80;;;;;;4955341;29;20045;-75
2023/09/10 03:43:26;;;;;;;21.20;11.57;;;487.10;2380.80;;;;;;4955329;29;20095;-74
2023/09/10 03:45:52;;;;;;;20.63;10.50;;;487.10;2380.80;;;;;;4954692;28;20027;-75
2023/09/10 03:48:17;;;;;;;16.45;11.40;;;487.10;2380.80;;;;;;4955557;29;20050;-77
2023/09/10 03:50:43;;;;;;;28.13;10.82;;;487.00;2380.80;;;;;;4955190;29;20042;-76
2023/09/10 03:53:09;;;;;;;19.20;10.98;;;486.60;2380.80;;;;;;4955030;29;20357;-74
2023/09/10 03:55:35;;;;;;;19.45;12.48;;;486.60;2380.80;;;;;;4955114;29;20380;-74
2023/09/10 03:58:01;;;;;;;18.25;10.80;;;486.50;2380.80;;;;;;4955200;29;20024;-74
2023/09/10 04:00:26;;;;;;;20.50;11.65;;;486.50;2380.80;;;;;;4955105;29;20027;-73
2023/09/10 04:02:52;;;;;;;18.50;11.95;;;486.50;2380.80;;;;;;4955154;29;20035;-74
2023/09/10 04:05:18;;;;;;;13.10;9.68;;;486.40;2380.80;;;;;;4955234;29;20475;-74
2023/09/10 04:07:44;;;;;;;17.08;10.00;;;461.70;2380.80;;;;;;4955033;28;20023;-74
2023/09/10 04:10:10;;;;;;;13.50;9.65;;;461.50;2380.80;;;;;;4955045;29;20401;-74
2023/09/10 04:12:36;;;;;;;19.45;10.95;;;461.70;2380.80;;;;;;4955237;29;20035;-75
2023/09/10 04:15:03;;;;;;;22.73;9.95;;;461.70;2380.80;;;;;;4954992;29;20110;-74
2023/09/10 04:17:29;;;;;;;15.98;10.07;;;461.70;2380.80;;;;;;4955063;29;20031;-74
2023/09/10 04:19:57;;;;;;;25.45;10.32;;;486.40;2380.80;;;;;;4955086;29;20025;-77
2023/09/10 04:22:23;;;;;;;16.98;9.30;;;486.40;2380.80;;;;;;4954942;29;20027;-74
2023/09/10 04:24:49;;;;;;;20.55;10.05;;;461.70;2380.80;;;;;;4954804;29;20044;-74
2023/09/10 04:27:15;;;;;;;15.00;9.88;;;461.60;2380.80;;;;;;4937680;29;20031;-74
2023/09/10 04:29:41;;;;;;;12.75;8.60;;;461.50;2380.80;;;;;;4954823;29;20023;-74
2023/09/10 04:32:07;;;;;;;15.68;9.98;;;461.50;2380.80;;;;;;4954898;29;20482;-72
2023/09/10 04:34:32;;;;;;;14.85;10.05;;;461.50;2380.80;;;;;;4954839;29;20024;-74
2023/09/10 04:36:58;;;;;;;23.83;10.63;;;461.50;2380.80;;;;;;4954997;29;20027;-74
2023/09/10 04:39:24;;;;;;;17.60;10.98;;;461.70;2380.80;;;;;;4954894;29;20030;-74
2023/09/10 04:41:50;;;;;;;15.85;9.30;;;461.70;2380.80;;;;;;4954796;29;20468;-74
2023/09/10 04:44:16;;;;;;;19.30;11.10;;;486.40;2380.80;;;;;;4954810;29;20023;-75
2023/09/10 04:46:42;;;;;;;17.77;11.32;;;486.50;2380.80;;;;;;4954817;29;20074;-74
2023/09/10 04:49:07;;;;;;;14.48;9.48;;;486.40;2380.80;;;;;;4954895;29;20027;-73
2023/09/10 04:51:33;;;;;;;20.58;11.20;;;461.70;2380.80;;;;;;4954825;29;20023;-74
2023/09/10 04:53:59;;;;;;;20.65;11.05;;;486.40;2380.80;;;;;;4954492;29;20035;-74
2023/09/10 04:56:24;;;;;;;17.98;10.63;;;486.50;2380.80;;;;;;4955899;28;20034;-78
2023/09/10 04:58:50;;;;;;;19.15;11.23;;;486.50;2380.80;;;;;;4958200;29;20053;-74
2023/09/10 05:01:16;;;;;;;22.90;12.57;;;486.50;2380.80;;;;;;4958128;29;20376;-74
2023/09/10 05:03:42;;;;;;;17.92;11.27;;;486.60;2380.80;;;;;;4957545;29;20024;-73
2023/09/10 05:06:09;;;;;;;22.40;10.27;;;486.60;2380.80;;;;;;4957648;29;20034;-74
2023/09/10 05:08:35;;;;;;;16.00;9.77;;;486.70;2380.80;;;;;;4957527;29;20027;-73
2023/09/10 05:11:02;;;;;;;21.15;10.95;;;486.90;2380.80;;;;;;4939775;29;20393;-80
2023/09/10 05:13:28;;;;;;;17.70;10.60;;;487.00;2380.80;;;;;;4957581;29;20379;-73
2023/09/10 05:15:54;;;;;;;19.02;10.43;;;487.10;2380.80;;;;;;4957364;29;20027;-73
2023/09/10 05:18:21;;;;;;;17.13;11.02;;;487.10;2380.80;;;;;;4940330;29;20027;-73
2023/09/10 05:20:47;;;;;;;17.15;10.50;;;487.30;2380.80;;;;;;4957144;29;20035;-74
2023/09/10 05:23:13;;;;;;;19.13;11.38;;;487.30;2380.80;;;;;;4957154;29;20031;-75
2023/09/10 05:25:39;;;;;;;20.30;11.05;;;487.30;2380.80;;;;;;4946998;29;20542;-75
2023/09/10 05:28:05;;;;;;;26.80;12.20;;;487.30;2380.80;;;;;;4948099;29;20023;-75
2023/09/10 05:30:31;;;;;;;15.13;10.70;;;487.30;2380.80;;;;;;4951112;29;20051;-79
2023/09/10 05:32:57;;;;;;;24.35;13.15;;;487.30;2380.80;;;;;;4952633;29;20038;-74
2023/09/10 05:35:23;;;;;;;20.40;13.27;;;512.00;2380.80;;;;;;4947386;29;20024;-76
2023/09/10 05:37:49;;;;;;;17.15;12.35;;;512.00;2380.80;;;;;;4953906;29;20476;-75
2023/09/10 05:40:15;;;;;;;21.20;12.82;;;512.10;2380.80;;;;;;4950444;29;20031;-75
2023/09/10 05:42:40;;;;;;;20.00;14.00;;;512.20;2380.80;;;;;;4952788;29;20480;-80
2023/09/10 05:45:07;;;;;;;21.00;14.10;;;512.00;2380.80;;;;;;4955400;29;20471;-75
2023/09/10 05:47:32;;;;;;;19.40;13.95;;;487.30;2380.80;;;;;;4952550;29;20099;-74
2023/09/10 05:50:00;;;;;;;23.80;15.32;;;487.20;2380.80;;;;;;4949128;29;20028;-76
2023/09/10 05:52:25;;;;;;;21.75;14.75;;;487.10;2380.80;;;;;;4954004;29;20539;-75
2023/09/10 05:54:51;;;;;;;23.00;14.27;;;487.10;2380.80;;;;;;4953392;29;20122;-74
2023/09/10 05:57:17;;;;;;;22.60;14.90;;;487.00;2380.80;;;;;;4949576;29;20106;-74
2023/09/10 05:59:42;;;;;;;23.67;16.67;;;487.00;2380.80;;;;;;4933465;29;20039;-76
2023/09/10 06:02:09;;;;;;;27.48;17.55;;;487.00;2380.80;;;;;;4951436;29;20031;-75
2023/09/10 06:04:35;;;;;;;21.70;16.50;;;487.20;2380.80;;;;;;4953876;29;20535;-76
2023/09/10 06:07:04;;;;;;;28.23;17.45;;;487.30;2380.80;;;;;;4950319;29;20098;-75
2023/09/10 06:09:31;;;;;;;27.88;18.23;;;487.20;2380.80;;;;;;4953704;29;20038;-75
2023/09/10 06:11:57;;;;;;;25.10;18.08;;;487.30;2380.80;;;;;;4948092;29;20027;-74
2023/09/10 06:14:23;;;;;;;25.85;18.42;;;487.30;2380.80;;;;;;4952363;29;20070;-76
2023/09/10 06:16:50;;;;;;;35.97;18.38;;;512.10;2380.80;;;;;;4951064;29;20031;-75
2023/09/10 06:19:16;;;;;;;25.35;17.52;;;512.30;2380.80;;;;;;4949458;29;20047;-76
2023/09/10 06:21:42;;;;;;;27.40;17.77;;;512.50;2380.80;;;;;;4952801;29;20094;-75
2023/09/10 06:24:08;;;;;;;23.48;16.23;;;512.80;2380.80;;;;;;4951464;29;20040;-75
2023/09/10 06:26:34;;;;;;;23.60;15.10;;;512.90;2380.80;;;;;;4948641;29;20078;-75
2023/09/10 06:29:00;;;;;;;23.55;14.75;;;537.70;2406.40;;;;;;4955026;29;20028;-74
2023/09/10 06:31:26;;;;;;;26.80;16.02;;;;;;;;;;4935926;29;20130;-75
2023/09/10 06:33:54;;;;;;;23.75;16.10;;;;;;;;;;4947777;29;20150;-73
2023/09/10 06:36:20;;;;;;;28.02;16.48;;;;;;;;;;4949368;29;20106;-74
2023/09/10 06:38:49;;;;;;;27.02;15.55;;;538.40;2406.40;;;;;;4948921;29;20024;-75
2023/09/10 06:41:15;;;;;;;26.30;15.23;;;538.50;2406.40;;;;;;4949911;29;20039;-75
2023/09/10 06:43:42;;;;;;;27.13;16.05;;;563.30;2432.00;;;;;;4931592;29;20054;-75
2023/09/10 06:46:08;;;;;;;25.35;15.00;;;563.50;2432.00;;;;;;4948435;29;20031;-75
2023/09/10 06:48:33;;;;;;;25.83;16.92;;;563.70;2432.00;;;;;;4951280;29;20023;-76
2023/09/10 06:51:01;;;;;;;21.27;13.95;;;;;;;;;;4950583;29;20039;-74
2023/09/10 06:53:27;;;;;;;24.40;14.25;;;588.90;2432.00;;;;;;4951652;29;20377;-75
2023/09/10 06:55:54;;;;;;;22.08;13.40;;;;;;;;;;4947106;29;20045;-73
2023/09/10 06:58:20;;;;;;;21.90;12.75;;;589.70;2432.00;;;;;;4945733;29;20023;-73
2023/09/10 07:00:46;;;;;;;20.52;12.40;;;614.60;2432.00;;;;;;4953849;29;20071;-75
2023/09/10 07:03:13;;;;;;;17.20;11.73;;;614.60;2432.00;;;;;;4954766;29;20431;-75
2023/09/10 07:05:40;;;;;;;18.95;11.82;;;614.90;2432.00;;;;;;4950380;29;20074;-75
2023/09/10 07:08:07;;;;;;;20.85;12.05;;;615.00;2432.00;;;;;;4948055;29;20090;-73
2023/09/10 07:10:33;;;;;;;18.95;11.77;;;615.20;2432.00;;;;;;4949135;29;20427;-76
2023/09/10 07:13:01;;;;;;;20.88;10.20;;;640.40;2432.00;;;;;;4948474;29;20053;-77
2023/09/10 07:15:27;;;;;;;20.55;9.70;;;640.40;2432.00;;;;;;4948284;29;20020;-75
2023/09/10 07:17:53;;;;;;;20.02;9.32;;;640.50;2432.00;;;;;;4951669;29;20523;-75
2023/09/10 07:20:18;;;;;;;18.42;9.10;;;640.50;2432.00;;;;;;4943511;29;20054;-77
2023/09/10 07:22:44;;;;;;;14.52;8.98;;;640.60;2380.80;;;;;;4938395;29;20036;-75
2023/09/10 07:25:10;;;;;;;11.30;8.07;;;640.90;2380.80;;;;;;4945316;29;20400;-75
2023/09/10 07:27:35;;;;;;;13.18;7.85;;;640.90;2278.40;;;;;;4946667;29;20038;-73
2023/09/10 07:30:03;;;;;;;15.27;7.82;;;665.70;2355.20;;;;;;4944003;29;20027;-75
2023/09/10 07:32:28;;;;;;;12.05;7.28;;;665.80;2252.80;;;;;;4946645;29;20043;-76
2023/09/10 07:34:54;;;;;;;14.85;6.97;;;665.90;2252.80;;;;;;4924978;29;20152;-78
2023/09/10 07:37:20;;;;;;;15.13;7.78;;;666.00;2201.60;;;;;;4951275;29;20401;-76
2023/09/10 07:39:46;;;;;;;12.60;6.40;;;666.10;2201.60;;;;;;4939674;29;20880;-76
2023/09/10 07:42:11;;;;;;;13.70;7.13;;;666.20;2124.80;;;;;;4942110;29;20039;-77
2023/09/10 07:44:37;;;;;;;11.00;7.00;;;666.30;2124.80;;;;;;4944775;29;20027;-79
2023/09/10 07:47:03;;;;;;;10.70;6.80;;;691.30;2099.20;;;;;;4945916;29;20495;-78
2023/09/10 07:49:28;;;;;;;10.77;6.78;;;691.40;2099.20;;;;;;4923144;29;20155;-76
2023/09/10 07:51:54;;;;;;;9.98;5.75;;;691.40;2048.00;;;;;;4937116;29;20071;-76
2023/09/10 07:54:20;;;;;;;9.50;6.03;;;691.60;2022.40;;;;;;4946024;29;20039;-77
2023/09/10 07:56:46;;;;;;;10.55;5.85;;;691.70;1996.80;;;;;;4925791;29;20038;-76
2023/09/10 07:59:12;;;;;;;8.70;5.07;;;691.90;1945.60;;;;;;4942338;29;20443;-75
2023/09/10 08:01:38;;;;;;;7.72;4.95;;;691.90;1945.60;;;;;;4948072;29;20031;-75
2023/09/10 08:04:04;;;;;;;9.65;5.60;;;691.80;1920.00;;;;;;4950168;29;20028;-77
2023/09/10 08:06:30;;;;;;;9.68;5.63;;;692.10;1868.80;;;;;;4950937;29;20044;-76
2023/09/10 08:08:57;;;;;;;8.20;4.93;;;716.90;1843.20;;;;;;4949131;29;20589;-75
2023/09/10 08:11:22;;;;;;;12.73;5.13;;;716.90;1817.60;;;;;;4943607;29;20028;-75
2023/09/10 08:13:48;;;;;;;12.00;5.63;;;717.00;1817.60;;;;;;4945032;29;20099;-76
2023/09/10 08:16:15;;;;;;;8.43;5.07;;;717.40;1792.00;;;;;;4949124;29;20506;-73
2023/09/10 08:18:41;;;;;;;10.23;5.38;;;742.50;1766.40;;;;;;4944001;29;20110;-73
2023/09/10 08:21:07;;;;;;;13.07;6.85;;;742.50;1715.20;;;;;;4948733;29;20042;-75
2023/09/10 08:23:33;;;;;;;7.97;5.30;;;742.60;1766.40;;;;;;4952839;29;20028;-75
2023/09/10 08:25:59;;;;;;;13.45;5.18;;;742.70;1689.60;;;;;;4945966;29;20043;-75
2023/09/10 08:28:24;;;;;;;22.30;5.80;;;742.70;1664.00;;;;;;4942158;29;20081;-75
2023/09/10 08:30:51;;;;;;;10.93;5.10;;;742.80;1638.40;;;;;;4934801;29;20031;-75
2023/09/10 08:33:17;;;;;;;15.13;6.35;;;742.60;1638.40;;;;;;4951855;29;20031;-75
2023/09/10 08:35:50;;;;;;;9.32;5.43;;;742.60;1664.00;;;;;;4945891;29;20083;-74
2023/09/10 08:38:16;;;;;;;10.07;4.90;;;742.80;1638.40;;;;;;4953894;29;20043;-75
2023/09/10 08:41:00;;;;;;;6.68;4.68;;;743.00;1638.40;;;;;;4946560;29;20042;-76
2023/09/10 08:43:39;;;;;;;10.02;5.35;;;742.80;1612.80;;;;;;4946556;29;20031;-76
2023/09/10 08:46:09;;;;;;;10.88;5.15;;;743.30;1664.00;;;;;;4951060;29;20391;-74
2023/09/10 08:48:40;;;;;;;13.55;4.57;;;743.10;1561.60;;;;;;4949440;29;20059;-76
2023/09/10 08:51:08;;;;;;;8.73;5.10;;;743.00;1561.60;;;;;;4948747;29;20031;-76
2023/09/10 08:53:35;;;;;;;10.43;5.68;;;743.20;1561.60;;;;;;4949727;29;20509;-75
2023/09/10 08:56:03;;;;;;;10.50;4.97;;;743.10;1561.60;;;;;;4948717;29;20032;-76
2023/09/10 08:58:30;;;;;;;11.90;6.15;;;743.30;1561.60;;;;;;4934888;29;20092;-75
2023/09/10 09:00:57;;;;;;;8.70;5.18;;;768.10;1536.00;;;;;;4953740;29;20118;-76
2023/09/10 09:03:23;;;;;;;9.55;5.85;;;768.10;1510.40;;;;;;4950136;29;20102;-75
2023/09/10 09:05:52;;;;;;;8.98;5.25;;;768.60;1536.00;;;;;;4949835;29;20171;-76
2023/09/10 09:08:26;;;;;;;11.50;4.65;;;768.40;1510.40;;;;;;4944810;29;20090;-76
2023/09/10 09:10:52;;;;;;;10.73;5.00;;;768.40;1484.80;;;;;;4950207;29;20030;-72
2023/09/10 09:13:20;;;;;;;10.07;5.03;;;768.70;1510.40;;;;;;4947509;29;20028;-77
2023/09/10 09:15:47;;;;;;;10.63;5.10;;;793.60;1484.80;;;;;;4945160;29;20021;-77
2023/09/10 09:18:17;;;;;;;9.32;5.38;;;794.00;1484.80;;;;;;4932687;29;20118;-77
2023/09/10 09:20:46;;;;;;;9.43;5.32;;;794.00;1433.60;;;;;;4946899;29;20023;-77
2023/09/10 09:23:26;;;;;;;11.73;4.85;;;794.50;1459.20;;;;;;4938935;29;20040;-78
2023/09/10 09:25:52;;;;;;;22.05;7.15;;;819.50;1382.40;;;;;;4941797;29;20040;-76
2023/09/10 09:28:19;;;;;;;14.05;5.72;;;819.60;1433.60;;;;;;4941761;29;20110;-76
2023/09/10 09:30:45;;;;;;;7.65;5.60;;;819.60;1356.80;;;;;;4946379;29;20575;-77
2023/09/10 09:33:10;;;;;;;9.75;5.18;;;819.60;1382.40;;;;;;4946161;29;20019;-76
2023/09/10 09:35:36;;;;;;;13.77;5.55;;;819.50;1433.60;;;;;;4950206;29;20396;-76
2023/09/10 09:38:13;;;;;;;11.38;5.18;;;819.80;1356.80;;;;;;4946253;29;20071;-77
2023/09/10 09:40:39;;;;;;;7.68;5.13;;;819.70;1356.80;;;;;;4942937;29;20122;-77
2023/09/10 09:43:09;;;;;;;12.98;4.53;;;820.00;1382.40;;;;;;4940433;29;20114;-76
2023/09/10 09:45:35;;;;;;;14.20;5.25;;;844.80;1305.60;;;;;;4950115;29;20028;-76
2023/09/10 09:48:03;;;;;;;10.90;5.20;;;844.90;1331.20;;;;;;4946860;29;20054;-76
2023/09/10 09:50:29;;;;;;;7.85;4.72;;;820.10;1331.20;;;;;;4951231;29;20106;-75
2023/09/10 09:52:56;;;;;;;10.55;4.30;;;844.80;1356.80;;;;;;4951400;29;20027;-75
2023/09/10 09:55:22;;;;;;;8.30;4.25;;;844.90;1305.60;;;;;;4952001;29;20039;-76
2023/09/10 09:57:51;;;;;;;7.13;4.70;;;845.20;1305.60;;;;;;4934088;29;20480;-76
2023/09/10 10:00:17;;;;;;;10.10;4.47;;;845.20;1305.60;;;;;;4949404;29;20172;-78
2023/09/10 10:02:43;;;;;;;9.45;4.90;;;;;;;;;;4930925;29;20032;-77
2023/09/10 10:05:09;;;;;;;10.50;5.00;;;845.70;1228.80;;;;;;4941113;29;20028;-79
2023/09/10 10:07:36;;;;;;;18.00;5.13;;;845.70;1254.40;;;;;;4946390;29;20039;-77
2023/09/10 10:10:06;;;;;;;6.43;4.43;;;870.40;1228.80;;;;;;4951483;29;20093;-77
2023/09/10 10:12:32;;;;;;;11.15;4.72;;;870.50;1254.40;;;;;;4946265;29;20035;-78
2023/09/10 10:14:59;;;;;;;10.63;5.43;;;845.60;1228.80;;;;;;4942905;29;20028;-79
2023/09/10 10:17:26;;;;;;;9.82;4.82;;;845.40;1228.80;;;;;;4953353;29;20041;-78
2023/09/10 10:19:53;;;;;;;11.98;4.65;;;845.40;1254.40;;;;;;4952256;29;20059;-77
2023/09/10 10:22:19;;;;;;;6.32;4.32;;;870.40;1280.00;;;;;;4937105;29;20113;-75
2023/09/10 10:24:46;;;;;;;13.57;4.93;;;870.50;1228.80;;;;;;4949687;28;20087;-79
2023/09/10 10:27:14;;;;;;;6.53;4.90;;;845.60;1228.80;;;;;;4938491;29;20046;-85
2023/09/10 10:29:40;;;;;;;6.82;4.38;;;870.80;1203.20;;;;;;4938062;29;20035;-79
2023/09/10 10:32:10;;;;;;;10.35;4.38;;;871.10;1126.40;;;;;;4926690;29;20031;-82
2023/09/10 10:34:38;;;;;;;8.88;4.90;;;871.30;1152.00;;;;;;4948848;29;20024;-79
2023/09/10 10:37:15;;;;;;;5.30;4.03;;;896.50;1126.40;;;;;;4931202;29;20038;-80
2023/09/10 10:40:08;;;;;;;7.28;4.07;;;896.50;1100.80;;;;;;4931225;29;20110;-80
2023/09/10 10:43:03;;;;;;;9.10;4.63;;;921.60;1126.40;;;;;;4951964;29;20388;-79
2023/09/10 10:45:31;;;;;;;7.07;4.43;;;922.00;1075.20;;;;;;4949358;29;20024;-80
2023/09/10 10:48:19;;;;;;;8.40;4.60;;;922.00;1075.20;;;;;;4922431;29;20119;-79
2023/09/10 10:50:46;;;;;;;6.78;4.47;;;922.00;1100.80;;;;;;4948701;29;20033;-79
2023/09/10 10:53:19;;;;;;;7.22;4.28;;;922.00;1100.80;;;;;;4950990;29;20063;-80
2023/09/10 10:55:47;;;;;;;6.85;4.63;;;922.30;1100.80;;;;;;4945203;29;20388;-79
2023/09/10 10:58:14;;;;;;;8.45;4.68;;;922.20;1100.80;;;;;;4950913;29;20125;-78
2023/09/10 11:00:40;;;;;;;5.47;4.28;;;922.00;1126.40;;;;;;4929499;29;20106;-79
2023/09/10 11:03:16;;;;;;;7.95;4.75;;;922.00;1100.80;;;;;;4948548;29;20023;-78
2023/09/10 11:05:54;;;;;;;12.23;4.30;;;921.60;1100.80;;;;;;4949962;29;20027;-78
2023/09/10 11:08:35;;;;;;;13.65;4.70;;;921.80;1100.80;;;;;;4949554;29;20079;-78
2023/09/10 11:11:03;;;;;;;6.85;4.85;;;896.70;1075.20;;;;;;4939387;29;20031;-79
2023/09/10 11:13:30;;;;;;;8.35;4.78;;;921.60;1100.80;;;;;;4946265;29;20020;-77
2023/09/10 11:16:04;;;;;;;9.80;4.72;;;896.70;1100.80;;;;;;4931467;29;20513;-77
2023/09/10 11:18:36;;;;;;;8.18;4.78;;;896.90;1126.40;;;;;;4948723;29;20032;-76
2023/09/10 11:21:06;;;;;;;9.50;5.00;;;896.80;1100.80;;;;;;4946796;29;20062;-78
2023/09/10 11:23:33;;;;;;;7.65;4.40;;;896.50;1100.80;;;;;;4951279;29;20066;-79
2023/09/10 11:26:14;;;;;;;8.48;5.43;;;896.80;1100.80;;;;;;4946368;29;20082;-77
2023/09/10 11:28:42;;;;;;;11.38;4.40;;;921.60;1152.00;;;;;;4949877;29;20119;-79
2023/09/10 11:31:33;;;;;;;7.05;4.40;;;921.60;1100.80;;;;;;4946457;29;20055;-79
2023/09/10 11:34:17;;;;;;;9.05;4.95;;;921.60;1126.40;;;;;;4947332;29;20027;-83
2023/09/10 11:36:47;;;;;;;6.65;5.03;;;896.70;1100.80;;;;;;4938640;29;20408;-83
2023/09/10 11:39:15;;;;;;;7.35;4.63;;;896.90;1100.80;;;;;;4945292;29;20024;-83
2023/09/10 11:41:52;;;;;;;13.50;4.93;;;896.90;1049.60;;;;;;4922390;29;20059;-82
2023/09/10 11:44:17;;;;;;;6.25;4.60;;;921.60;1126.40;;;;;;4932144;29;20024;-83
2023/09/10 11:46:44;;;;;;;11.60;4.53;;;921.60;1100.80;;;;;;4949814;29;20027;-83
2023/09/10 11:49:11;;;;;;;9.32;4.40;;;921.80;1075.20;;;;;;4929651;29;20042;-85
2023/09/10 11:52:07;;;;;;;9.07;4.80;;;921.90;1075.20;;;;;;4936088;29;20047;-83
2023/09/10 11:54:33;;;;;;;10.48;4.55;;;921.90;1075.20;;;;;;4908723;29;20044;-83
2023/09/10 11:56:58;;;;;;;7.88;4.22;;;922.00;1075.20;;;;;;4913296;29;20369;-83
2023/09/10 11:59:32;;;;;;;8.82;4.90;;;922.00;1126.40;;;;;;4913350;29;20083;-83
2023/09/10 12:01:58;;;;;;;8.68;4.60;;;922.20;1075.20;;;;;;4891923;29;20040;-83
2023/09/10 12:04:28;;;;;;;8.20;4.30;;;922.20;1075.20;;;;;;4895479;29;20050;-83
2023/09/10 12:06:54;;;;;;;13.75;5.03;;;922.00;1100.80;;;;;;4903816;29;20083;-82
2023/09/10 12:09:19;;;;;;;8.57;4.35;;;896.80;1100.80;;;;;;4897618;29;20036;-83
2023/09/10 12:11:47;;;;;;;8.95;5.18;;;921.60;1100.80;;;;;;4888781;29;20485;-83